createdAt,value
2022-11-09T00:13:23.933Z,6.21
2022-11-09T00:28:16.735Z,7.48
2022-11-09T00:43:07.497Z,7.96
2022-11-09T00:57:59.482Z,9.17
2022-11-09T01:12:50.699Z,8.80
2022-11-09T01:27:46.226Z,9.19
2022-11-09T01:42:43.530Z,9.54
2022-11-09T01:57:46.059Z,9.01
2022-11-09T02:12:43.297Z,9.11
2022-11-09T02:27:37.227Z,9.99
2022-11-09T02:42:30.605Z,10.61
2022-11-09T02:57:23.542Z,10.11
2022-11-09T03:12:29.823Z,9.88
2022-11-09T03:27:26.210Z,10.30
2022-11-09T03:42:26.434Z,10.52
2022-11-09T04:12:22.767Z,10.66
2022-11-09T04:27:16.136Z,7.90
2022-11-09T04:42:08.776Z,5.59
2022-11-09T04:57:00.149Z,3.76
2022-11-09T05:11:52.410Z,4.31
2022-11-09T05:26:44.779Z,4.10
2022-11-09T05:41:36.301Z,4.39
2022-11-09T05:56:28.148Z,3.68
2022-11-09T06:11:23.936Z,4.08
2022-11-09T06:26:12.536Z,3.64
2022-11-09T06:41:04.151Z,3.27
2022-11-09T06:55:58.941Z,2.02
2022-11-09T07:10:52.811Z,2.14
2022-11-09T07:25:49.689Z,1.80
2022-11-09T07:40:42.903Z,3.37
2022-11-09T07:55:35.197Z,3.69
2022-11-09T08:10:27.794Z,4.30
2022-11-09T08:25:22.609Z,4.34
2022-11-09T08:40:15.215Z,3.59
2022-11-09T08:55:07.067Z,3.04
2022-11-09T09:10:00.755Z,2.97
2022-11-09T09:24:54.235Z,2.08
2022-11-09T09:39:47.581Z,2.09
2022-11-09T09:54:40.172Z,2.20
2022-11-09T10:09:34.028Z,1.51
2022-11-09T10:24:31.118Z,1.88
2022-11-09T10:39:26.595Z,1.89
2022-11-09T10:54:21.236Z,1.69
2022-11-09T11:09:16.506Z,1.71
2022-11-09T11:24:18.098Z,2.08
2022-11-09T11:39:33.047Z,1.56
2022-11-09T11:54:31.524Z,1.76
2022-11-09T12:09:35.020Z,1.67
2022-11-09T12:24:34.258Z,1.88
2022-11-09T12:39:43.938Z,2.18
2022-11-09T12:54:39.652Z,2.33
2022-11-09T13:24:31.580Z,2.44
2022-11-09T13:54:35.874Z,2.74
2022-11-09T14:24:40.636Z,3.59
2022-11-09T14:39:34.039Z,3.62
2022-11-09T14:54:25.713Z,3.20
2022-11-09T15:09:18.167Z,4.16
2022-11-09T15:24:09.655Z,5.41
2022-11-09T15:39:07.815Z,3.86
2022-11-09T15:54:03.196Z,2.77
2022-11-09T16:24:00.524Z,3.61
2022-11-09T16:38:53.741Z,5.44
2022-11-09T16:53:47.788Z,5.58
2022-11-09T17:08:39.721Z,5.00
2022-11-09T17:23:32.192Z,4.70
2022-11-09T17:38:23.830Z,5.41
2022-11-09T17:53:15.669Z,5.23
2022-11-09T18:08:06.454Z,4.50
2022-11-09T18:22:57.993Z,5.02
2022-11-09T18:37:56.486Z,5.08
2022-11-09T18:52:52.473Z,3.02
2022-11-09T19:07:46.646Z,3.93
2022-11-09T19:22:38.738Z,3.58
2022-11-09T19:37:29.639Z,5.67
2022-11-09T19:52:21.982Z,7.59
2022-11-09T20:07:14.227Z,7.02
2022-11-09T20:52:15.692Z,15.53
2022-11-09T21:07:08.171Z,16.26
2022-11-09T21:22:05.727Z,15.60
2022-11-09T21:36:52.371Z,14.96
2022-11-09T22:06:55.662Z,15.49
2022-11-09T22:21:47.269Z,14.02
2022-11-09T22:36:38.796Z,13.63
2022-11-09T22:51:30.519Z,12.57
2022-11-09T23:06:22.936Z,11.81
2022-11-09T23:21:14.267Z,12.10
2022-11-09T23:36:06.346Z,12.20
2022-11-09T23:50:59.341Z,10.09
